createdAt,value
2023-01-25T00:00:12.035Z,-1.09
2023-01-25T00:02:41.843Z,-1.12
2023-01-25T00:05:10.432Z,-1.14
2023-01-25T00:07:39.210Z,-1.15
2023-01-25T00:10:08.202Z,-1.16
2023-01-25T00:12:36.887Z,-1.18
2023-01-25T00:15:06.489Z,-1.19
2023-01-25T00:17:35.284Z,-1.19
2023-01-25T00:20:04.489Z,-1.19
2023-01-25T00:22:32.956Z,-1.18
2023-01-25T00:25:03.380Z,-1.16
2023-01-25T00:27:32.162Z,-1.12
2023-01-25T00:30:00.660Z,-1.10
2023-01-25T00:32:37.012Z,-1.08
2023-01-25T00:35:10.445Z,-1.06
2023-01-25T00:37:50.085Z,-1.04
2023-01-25T00:40:20.932Z,-1.04
2023-01-25T00:42:49.561Z,-1.00
2023-01-25T00:45:18.043Z,-0.98
2023-01-25T00:47:46.416Z,-0.96
2023-01-25T00:50:15.817Z,-0.98
2023-01-25T00:52:44.092Z,-0.97
2023-01-25T00:55:12.467Z,-0.93
2023-01-25T00:57:40.950Z,-0.88
2023-01-25T01:00:10.345Z,-0.86
2023-01-25T01:02:41.081Z,-0.90
2023-01-25T01:05:10.587Z,-0.93
2023-01-25T01:07:39.229Z,-0.92
2023-01-25T01:10:08.464Z,-0.91
2023-01-25T01:12:51.583Z,-0.93
2023-01-25T01:15:19.961Z,-0.95
2023-01-25T01:17:48.334Z,-0.95
2023-01-25T01:20:18.058Z,-0.96
2023-01-25T01:22:46.624Z,-0.97
2023-01-25T01:25:15.110Z,-0.98
2023-01-25T01:27:43.688Z,-1.02
2023-01-25T01:30:12.689Z,-1.05
2023-01-25T01:32:41.575Z,-1.04
2023-01-25T01:35:10.503Z,-1.04
2023-01-25T01:37:42.451Z,-1.05
2023-01-25T01:40:14.689Z,-1.05
2023-01-25T01:43:01.503Z,-1.05
2023-01-25T01:45:49.496Z,-1.05
2023-01-25T01:48:38.589Z,-1.04
2023-01-25T01:51:45.786Z,-1.02
2023-01-25T01:54:26.542Z,-1.02
2023-01-25T01:57:06.594Z,-1.02
2023-01-25T01:59:41.727Z,-1.03
2023-01-25T02:02:10.259Z,-1.05
2023-01-25T02:04:39.196Z,-1.12
2023-01-25T02:07:15.777Z,-1.16
2023-01-25T02:09:47.109Z,-1.16
2023-01-25T02:12:16.113Z,-1.12
2023-01-25T02:14:52.261Z,-1.12
2023-01-25T02:17:28.743Z,-1.10
2023-01-25T02:20:06.631Z,-1.08
2023-01-25T02:22:54.971Z,-1.04
2023-01-25T02:25:23.353Z,-0.98
2023-01-25T02:28:16.767Z,-0.95
2023-01-25T02:30:46.277Z,-1.00
2023-01-25T02:33:14.800Z,-1.04
2023-01-25T02:35:46.653Z,-1.05
2023-01-25T02:38:18.925Z,-1.04
2023-01-25T02:41:00.918Z,-1.03
2023-01-25T02:43:31.853Z,-0.99
2023-01-25T02:46:15.338Z,-1.02
2023-01-25T02:48:46.836Z,-1.05
2023-01-25T02:51:15.271Z,-1.02
2023-01-25T02:53:44.615Z,-1.06
2023-01-25T02:56:13.192Z,-1.03
2023-01-25T02:58:41.670Z,-1.02
2023-01-25T03:01:12.251Z,-0.98
2023-01-25T03:03:42.828Z,-0.98
2023-01-25T03:06:11.215Z,-0.98
2023-01-25T03:08:40.615Z,-0.98
2023-01-25T03:11:09.390Z,-0.97
2023-01-25T03:13:38.235Z,-0.95
2023-01-25T03:16:08.868Z,-0.95
2023-01-25T03:18:37.803Z,-0.96
2023-01-25T03:21:17.957Z,-0.98
2023-01-25T03:23:47.405Z,-0.97
2023-01-25T03:26:22.387Z,-0.96
2023-01-25T03:29:01.309Z,-0.92
2023-01-25T03:31:29.849Z,-0.90
2023-01-25T03:33:58.572Z,-0.90
2023-01-25T03:36:29.760Z,-0.87
2023-01-25T03:38:58.809Z,-0.86
2023-01-25T03:41:27.696Z,-0.88
2023-01-25T03:43:58.633Z,-0.88
2023-01-25T03:46:27.337Z,-0.87
2023-01-25T03:48:56.412Z,-0.88
2023-01-25T03:51:25.094Z,-0.88
2023-01-25T03:53:54.614Z,-0.87
2023-01-25T03:56:23.387Z,-0.85
2023-01-25T03:59:18.283Z,-0.80
2023-01-25T04:01:47.374Z,-0.77
2023-01-25T04:04:16.266Z,-0.80
2023-01-25T04:06:46.278Z,-0.79
2023-01-25T04:09:15.270Z,-0.78
2023-01-25T04:11:51.746Z,-0.79
2023-01-25T04:14:31.847Z,-0.77
2023-01-25T04:17:08.563Z,-0.74
2023-01-25T04:20:01.431Z,-0.74
2023-01-25T04:22:35.961Z,-0.74
2023-01-25T04:25:05.333Z,-0.75
2023-01-25T04:27:34.321Z,-0.77
2023-01-25T04:30:10.380Z,-0.81
2023-01-25T04:32:38.948Z,-0.79
2023-01-25T04:35:17.168Z,-0.76
2023-01-25T04:37:56.196Z,-0.74
2023-01-25T04:40:26.752Z,-0.75
2023-01-25T04:42:55.505Z,-0.75
2023-01-25T04:45:25.726Z,-0.72
2023-01-25T04:48:02.670Z,-0.73
2023-01-25T04:50:31.416Z,-0.77
2023-01-25T04:53:00.584Z,-0.82
2023-01-25T04:55:32.102Z,-0.82
2023-01-25T04:58:02.867Z,-0.81
2023-01-25T05:00:32.598Z,-0.82
2023-01-25T05:03:01.474Z,-0.83
2023-01-25T05:05:30.557Z,-0.83
2023-01-25T05:07:59.965Z,-0.83
2023-01-25T05:10:29.157Z,-0.84
2023-01-25T05:13:18.932Z,-0.87
2023-01-25T05:15:49.005Z,-0.90
2023-01-25T05:18:17.785Z,-0.92
2023-01-25T05:20:46.211Z,-0.94
2023-01-25T05:23:15.203Z,-0.92
2023-01-25T05:26:02.537Z,-0.85
2023-01-25T05:28:32.131Z,-0.84
2023-01-25T05:31:11.360Z,-0.81
2023-01-25T05:33:40.661Z,-0.78
2023-01-25T05:36:09.036Z,-0.77
2023-01-25T05:38:38.332Z,-0.73
2023-01-25T05:41:08.864Z,-0.72
2023-01-25T05:43:37.344Z,-0.79
2023-01-25T05:46:08.541Z,-0.81
2023-01-25T05:48:37.266Z,-0.83
2023-01-25T05:51:06.368Z,-0.83
2023-01-25T05:53:35.705Z,-0.82
2023-01-25T05:56:07.955Z,-0.86
2023-01-25T05:58:37.543Z,-0.79
2023-01-25T06:01:06.931Z,-0.80
2023-01-25T06:03:41.832Z,-0.69
2023-01-25T06:06:10.857Z,-0.68
2023-01-25T06:08:39.774Z,-0.71
2023-01-25T06:11:12.359Z,-0.71
2023-01-25T06:13:46.256Z,-0.76
2023-01-25T06:16:15.940Z,-0.78
2023-01-25T06:18:44.548Z,-0.72
2023-01-25T06:21:37.377Z,-0.67
2023-01-25T06:24:09.300Z,-0.63
2023-01-25T06:26:37.813Z,-0.63
2023-01-25T06:29:07.314Z,-0.62
2023-01-25T06:31:36.206Z,-0.62
2023-01-25T06:34:06.743Z,-0.62
2023-01-25T06:36:35.741Z,-0.61
2023-01-25T06:39:05.249Z,-0.57
2023-01-25T06:41:35.545Z,-0.57
2023-01-25T06:44:05.055Z,-0.54
2023-01-25T06:46:34.040Z,-0.63
2023-01-25T06:49:03.535Z,-0.60
2023-01-25T06:51:32.021Z,-0.66
2023-01-25T06:54:02.745Z,-0.68
2023-01-25T06:56:33.171Z,-0.64
2023-01-25T06:59:02.269Z,-0.61
2023-01-25T07:01:31.114Z,-0.60
2023-01-25T07:03:59.942Z,-0.64
2023-01-25T07:06:33.437Z,-0.66
2023-01-25T07:09:06.531Z,-0.63
2023-01-25T07:11:35.300Z,-0.59
2023-01-25T07:14:04.318Z,-0.55
2023-01-25T07:16:37.212Z,-0.53
2023-01-25T07:19:13.064Z,-0.49
2023-01-25T07:21:43.871Z,-0.47
2023-01-25T07:24:16.248Z,-0.47
2023-01-25T07:26:47.002Z,-0.45
2023-01-25T07:29:16.372Z,-0.40
2023-01-25T07:31:51.897Z,-0.37
2023-01-25T07:34:22.489Z,-0.36
2023-01-25T07:36:53.483Z,-0.37
2023-01-25T07:39:21.892Z,-0.38
2023-01-25T07:41:50.450Z,-0.36
2023-01-25T07:44:21.600Z,-0.38
2023-01-25T07:46:54.160Z,-0.37
2023-01-25T07:49:22.436Z,-0.38
2023-01-25T07:51:52.665Z,-0.40
2023-01-25T07:54:21.036Z,-0.40
2023-01-25T07:56:50.030Z,-0.39
2023-01-25T08:04:53.989Z,-0.34
2023-01-25T08:07:24.392Z,-0.31
2023-01-25T08:09:53.795Z,-0.29
2023-01-25T08:12:22.880Z,-0.26
2023-01-25T08:14:51.260Z,-0.26
2023-01-25T08:17:19.857Z,-0.25
2023-01-25T08:19:48.322Z,-0.23
2023-01-25T08:22:17.003Z,-0.20
2023-01-25T08:24:45.519Z,-0.19
2023-01-25T08:27:16.519Z,-0.16
2023-01-25T08:29:45.205Z,-0.16
2023-01-25T08:32:13.792Z,-0.16
2023-01-25T08:34:42.485Z,-0.18
2023-01-25T08:37:15.338Z,-0.16
2023-01-25T08:39:50.109Z,-0.16
2023-01-25T08:42:21.537Z,-0.16
2023-01-25T08:44:50.107Z,-0.13
2023-01-25T08:47:18.482Z,-0.13
2023-01-25T08:49:46.954Z,-0.09
2023-01-25T08:52:16.409Z,-0.01
2023-01-25T08:54:45.166Z,0.00
2023-01-25T08:57:13.633Z,-0.00
2023-01-25T08:59:42.559Z,-0.02
2023-01-25T09:02:14.146Z,-0.02
2023-01-25T09:04:42.878Z,-0.03
2023-01-25T09:07:11.212Z,-0.06
2023-01-25T09:09:39.612Z,-0.05
2023-01-25T09:12:09.724Z,-0.06
2023-01-25T09:14:40.457Z,-0.05
2023-01-25T09:17:10.077Z,-0.06
2023-01-25T09:19:38.543Z,-0.05
2023-01-25T09:22:07.194Z,-0.04
2023-01-25T09:24:37.396Z,-0.01
2023-01-25T09:27:06.491Z,0.03
2023-01-25T09:29:35.905Z,0.06
2023-01-25T09:32:08.667Z,0.06
2023-01-25T09:34:54.318Z,0.06
2023-01-25T09:37:27.593Z,0.08
2023-01-25T09:39:56.436Z,0.10
2023-01-25T09:42:57.274Z,0.13
2023-01-25T09:45:36.004Z,0.10
2023-01-25T09:48:04.287Z,0.13
2023-01-25T09:51:40.872Z,0.15
2023-01-25T09:54:10.750Z,0.21
2023-01-25T09:56:39.662Z,0.24
2023-01-25T09:59:17.256Z,0.24
2023-01-25T10:01:54.124Z,0.26
2023-01-25T10:04:26.938Z,0.28
2023-01-25T10:07:03.150Z,0.29
2023-01-25T10:09:34.702Z,0.29
2023-01-25T10:12:14.282Z,0.32
2023-01-25T10:14:43.981Z,0.33
2023-01-25T10:17:37.828Z,0.32
2023-01-25T10:20:15.047Z,0.35
2023-01-25T10:22:51.731Z,0.35
2023-01-25T10:25:53.513Z,0.39
2023-01-25T10:28:31.155Z,0.39
2023-01-25T10:31:07.636Z,0.37
2023-01-25T10:33:42.346Z,0.43
2023-01-25T10:36:17.839Z,0.49
2023-01-25T10:38:47.558Z,0.50
2023-01-25T10:41:25.274Z,0.50
2023-01-25T10:44:13.726Z,0.51
2023-01-25T10:46:44.596Z,0.48
2023-01-25T10:49:39.301Z,0.45
2023-01-25T10:52:20.214Z,0.46
2023-01-25T10:54:52.486Z,0.49
2023-01-25T10:57:21.500Z,0.49
2023-01-25T10:59:51.310Z,0.48
2023-01-25T11:02:42.077Z,0.51
2023-01-25T11:05:18.789Z,0.50
2023-01-25T11:07:47.889Z,0.52
2023-01-25T11:10:35.889Z,0.53
2023-01-25T11:13:13.793Z,0.52
2023-01-25T11:16:02.014Z,0.49
2023-01-25T11:18:35.440Z,0.49
2023-01-25T11:21:10.872Z,0.46
2023-01-25T11:23:39.471Z,0.44
2023-01-25T11:26:15.877Z,0.40
2023-01-25T11:28:45.830Z,0.41
2023-01-25T11:31:21.738Z,0.45
2023-01-25T11:33:50.978Z,0.41
2023-01-25T11:36:39.435Z,0.46
2023-01-25T11:39:26.975Z,0.42
2023-01-25T11:42:51.665Z,0.38
2023-01-25T11:45:45.771Z,0.38
2023-01-25T11:48:35.333Z,0.40
2023-01-25T11:51:07.467Z,0.43
2023-01-25T11:53:59.497Z,0.39
2023-01-25T11:56:38.214Z,0.35
2023-01-25T11:59:30.664Z,0.34
2023-01-25T12:02:32.921Z,0.33
2023-01-25T12:05:21.855Z,0.33
2023-01-25T12:08:12.080Z,0.30
2023-01-25T12:10:50.762Z,0.30
2023-01-25T12:13:31.164Z,0.26
2023-01-25T12:16:02.495Z,0.25
2023-01-25T12:18:34.269Z,0.27
2023-01-25T12:21:31.769Z,0.30
2023-01-25T12:24:28.761Z,0.34
2023-01-25T12:27:11.378Z,0.38
2023-01-25T12:33:08.905Z,0.41
2023-01-25T12:35:54.158Z,0.46
2023-01-25T12:38:48.358Z,0.51
2023-01-25T12:41:30.744Z,0.52
2023-01-25T12:44:10.076Z,0.51
2023-01-25T12:47:05.592Z,0.48
2023-01-25T12:49:35.324Z,0.48
2023-01-25T12:52:06.978Z,0.43
2023-01-25T12:54:38.457Z,0.44
2023-01-25T12:57:16.406Z,0.36
2023-01-25T12:59:47.246Z,0.33
2023-01-25T13:02:26.682Z,0.33
2023-01-25T13:05:02.740Z,0.33
2023-01-25T13:07:37.341Z,0.34
2023-01-25T13:10:36.912Z,0.38
2023-01-25T13:13:24.810Z,0.43
2023-01-25T13:15:59.318Z,0.41
2023-01-25T13:18:34.205Z,0.40
2023-01-25T13:21:06.756Z,0.41
2023-01-25T13:23:50.919Z,0.43
2023-01-25T13:26:22.722Z,0.37
2023-01-25T13:28:54.615Z,0.39
2023-01-25T13:31:51.008Z,0.36
2023-01-25T13:34:42.733Z,0.36
2023-01-25T13:37:21.277Z,0.35
2023-01-25T13:39:54.569Z,0.35
2023-01-25T13:42:25.693Z,0.32
2023-01-25T13:45:00.046Z,0.24
2023-01-25T13:47:30.487Z,0.21
2023-01-25T13:50:15.297Z,0.20
2023-01-25T13:53:00.260Z,0.17
2023-01-25T13:55:38.049Z,0.16
2023-01-25T14:01:20.003Z,0.00
2023-01-25T14:03:50.309Z,-0.02
2023-01-25T14:06:39.269Z,-0.03
2023-01-25T14:09:16.672Z,-0.02
2023-01-25T14:11:56.706Z,-0.04
2023-01-25T14:14:30.100Z,-0.07
2023-01-25T14:17:22.377Z,-0.09
2023-01-25T14:19:56.759Z,-0.15
2023-01-25T14:22:27.727Z,-0.13
2023-01-25T14:25:12.445Z,-0.08
2023-01-25T14:27:55.172Z,-0.11
2023-01-25T14:30:34.360Z,-0.14
2023-01-25T14:33:15.834Z,-0.16
2023-01-25T14:35:58.589Z,-0.15
2023-01-25T14:38:37.467Z,-0.16
2023-01-25T14:41:23.612Z,-0.14
2023-01-25T14:43:54.527Z,-0.17
2023-01-25T14:46:34.717Z,-0.17
2023-01-25T14:49:27.100Z,-0.18
2023-01-25T14:52:14.352Z,-0.20
2023-01-25T14:54:55.548Z,-0.22
2023-01-25T14:57:33.514Z,-0.22
2023-01-25T15:00:19.387Z,-0.24
2023-01-25T15:02:57.947Z,-0.24
2023-01-25T15:05:31.035Z,-0.21
2023-01-25T15:08:08.741Z,-0.22
2023-01-25T15:10:38.541Z,-0.24
2023-01-25T15:13:15.309Z,-0.25
2023-01-25T15:15:55.537Z,-0.25
2023-01-25T15:18:49.557Z,-0.26
2023-01-25T15:21:25.424Z,-0.27
2023-01-25T15:23:54.559Z,-0.26
2023-01-25T15:26:27.364Z,-0.26
2023-01-25T15:28:57.942Z,-0.25
2023-01-25T15:31:30.844Z,-0.26
2023-01-25T15:34:00.422Z,-0.27
2023-01-25T15:36:29.801Z,-0.27
2023-01-25T15:38:58.260Z,-0.26
2023-01-25T15:41:26.842Z,-0.28
2023-01-25T15:43:56.478Z,-0.27
2023-01-25T15:46:26.686Z,-0.28
2023-01-25T15:48:55.591Z,-0.29
2023-01-25T15:51:24.453Z,-0.30
2023-01-25T15:53:53.027Z,-0.30
2023-01-25T15:56:29.503Z,-0.29
2023-01-25T15:59:01.766Z,-0.31
2023-01-25T16:01:30.289Z,-0.33
2023-01-25T16:04:16.026Z,-0.36
2023-01-25T16:06:51.717Z,-0.37
2023-01-25T16:09:23.644Z,-0.39
2023-01-25T16:11:56.727Z,-0.38
2023-01-25T16:14:33.398Z,-0.34
2023-01-25T16:17:04.194Z,-0.32
2023-01-25T16:19:33.013Z,-0.30
2023-01-25T16:22:01.275Z,-0.28
2023-01-25T16:24:30.294Z,-0.29
2023-01-25T16:26:59.287Z,-0.28
2023-01-25T16:29:28.275Z,-0.31
2023-01-25T16:31:56.998Z,-0.32
2023-01-25T16:34:26.164Z,-0.31
2023-01-25T16:36:54.835Z,-0.34
2023-01-25T16:39:26.858Z,-0.38
2023-01-25T16:41:56.302Z,-0.38
2023-01-25T16:44:25.699Z,-0.38
2023-01-25T16:46:55.462Z,-0.38
2023-01-25T16:49:27.887Z,-0.36
2023-01-25T16:51:57.385Z,-0.35
2023-01-25T16:54:26.102Z,-0.36
2023-01-25T16:56:55.170Z,-0.37
2023-01-25T16:59:24.568Z,-0.38
2023-01-25T17:01:52.947Z,-0.41
2023-01-25T17:04:21.535Z,-0.43
2023-01-25T17:06:50.880Z,-0.40
2023-01-25T17:09:25.636Z,-0.41
2023-01-25T17:11:54.957Z,-0.41
2023-01-25T17:14:23.327Z,-0.42
2023-01-25T17:16:53.940Z,-0.44
2023-01-25T17:19:22.518Z,-0.45
2023-01-25T17:21:51.737Z,-0.46
2023-01-25T17:24:22.003Z,-0.43
2023-01-25T17:26:51.344Z,-0.44
2023-01-25T17:29:19.641Z,-0.47
2023-01-25T17:31:48.195Z,-0.45
2023-01-25T17:34:22.012Z,-0.46
2023-01-25T17:36:50.778Z,-0.43
2023-01-25T17:39:19.846Z,-0.41
2023-01-25T17:41:49.351Z,-0.40
2023-01-25T17:44:22.200Z,-0.35
2023-01-25T17:46:50.772Z,-0.35
2023-01-25T17:49:19.443Z,-0.34
2023-01-25T17:51:50.992Z,-0.38
2023-01-25T17:54:20.090Z,-0.38
2023-01-25T17:56:48.566Z,-0.39
2023-01-25T17:59:18.676Z,-0.42
2023-01-25T18:01:48.270Z,-0.43
2023-01-25T18:04:20.727Z,-0.43
2023-01-25T18:06:50.670Z,-0.49
2023-01-25T18:09:20.713Z,-0.52
2023-01-25T18:11:49.368Z,-0.41
2023-01-25T18:14:19.179Z,-0.43
2023-01-25T18:16:48.377Z,-0.42
2023-01-25T18:19:17.060Z,-0.39
2023-01-25T18:21:47.075Z,-0.35
2023-01-25T18:24:35.203Z,-0.43
2023-01-25T18:27:12.805Z,-0.47
2023-01-25T18:29:45.798Z,-0.47
2023-01-25T18:32:15.605Z,-0.50
2023-01-25T18:34:44.284Z,-0.53
2023-01-25T18:37:18.496Z,-0.57
2023-01-25T18:39:48.719Z,-0.59
2023-01-25T18:42:18.225Z,-0.62
2023-01-25T18:44:48.736Z,-0.61
2023-01-25T18:47:19.063Z,-0.61
2023-01-25T18:49:49.503Z,-0.62
2023-01-25T18:52:19.018Z,-0.59
2023-01-25T18:54:47.580Z,-0.62
2023-01-25T18:57:16.693Z,-0.65
2023-01-25T18:59:45.475Z,-0.67
2023-01-25T19:02:15.067Z,-0.67
2023-01-25T19:04:43.556Z,-0.68
2023-01-25T19:07:12.698Z,-0.67
2023-01-25T19:09:44.000Z,-0.68
2023-01-25T19:12:12.459Z,-0.69
2023-01-25T19:14:40.946Z,-0.70
2023-01-25T19:17:09.528Z,-0.70
2023-01-25T19:19:41.177Z,-0.71
2023-01-25T19:22:09.555Z,-0.70
2023-01-25T19:24:38.342Z,-0.72
2023-01-25T19:27:07.226Z,-0.74
2023-01-25T19:29:37.048Z,-0.74
2023-01-25T19:32:05.720Z,-0.74
2023-01-25T19:34:34.513Z,-0.77
2023-01-25T19:37:02.987Z,-0.79
2023-01-25T19:39:32.901Z,-0.82
2023-01-25T19:42:04.346Z,-0.86
2023-01-25T19:44:33.133Z,-0.88
2023-01-25T19:47:01.712Z,-0.88
2023-01-25T19:49:30.504Z,-0.88
2023-01-25T19:51:59.086Z,-0.87
2023-01-25T19:54:27.867Z,-0.86
2023-01-25T19:56:59.320Z,-0.81
2023-01-25T19:59:29.236Z,-0.78
2023-01-25T20:01:57.726Z,-0.77
2023-01-25T20:04:28.030Z,-0.77
2023-01-25T20:06:56.610Z,-0.74
2023-01-25T20:09:28.305Z,-0.75
2023-01-25T20:11:57.677Z,-0.75
2023-01-25T20:14:26.668Z,-0.72
2023-01-25T20:16:55.151Z,-0.73
2023-01-25T20:19:24.641Z,-0.82
2023-01-25T20:21:53.116Z,-0.86
2023-01-25T20:24:21.777Z,-0.81
2023-01-25T20:26:51.510Z,-0.81
2023-01-25T20:29:21.733Z,-0.80
2023-01-25T20:31:50.432Z,-0.84
2023-01-25T20:34:21.235Z,-0.91
2023-01-25T20:36:50.495Z,-0.95
2023-01-25T20:39:20.585Z,-0.99
2023-01-25T20:41:51.755Z,-1.02
2023-01-25T20:44:20.390Z,-1.04
2023-01-25T20:46:50.348Z,-1.02
2023-01-25T20:49:18.983Z,-1.02
2023-01-25T20:51:47.765Z,-1.05
2023-01-25T20:54:16.974Z,-1.09
2023-01-25T20:56:48.223Z,-1.09
2023-01-25T20:59:18.229Z,-1.10
2023-01-25T21:01:50.646Z,-1.10
2023-01-25T21:04:19.380Z,-1.09
2023-01-25T21:06:47.856Z,-1.08
2023-01-25T21:09:16.339Z,-1.10
2023-01-25T21:11:45.126Z,-1.11
2023-01-25T21:14:14.115Z,-1.12
2023-01-25T21:16:44.545Z,-1.14
2023-01-25T21:19:13.256Z,-1.11
2023-01-25T21:21:41.700Z,-1.10
2023-01-25T21:24:10.204Z,-1.11
2023-01-25T21:26:38.982Z,-1.12
2023-01-25T21:29:08.298Z,-1.13
2023-01-25T21:31:38.961Z,-1.13
2023-01-25T21:34:09.428Z,-1.14
2023-01-25T21:36:38.111Z,-1.10
2023-01-25T21:39:06.583Z,-1.09
2023-01-25T21:41:35.683Z,-1.08
2023-01-25T21:44:23.211Z,-1.10
2023-01-25T21:47:19.543Z,-1.14
2023-01-25T21:49:58.887Z,-1.13
2023-01-25T21:52:27.618Z,-1.12
2023-01-25T21:54:56.032Z,-1.15
2023-01-25T21:57:24.720Z,-1.17
2023-01-25T21:59:54.405Z,-1.19
2023-01-25T22:02:23.199Z,-1.18
2023-01-25T22:04:51.789Z,-1.19
2023-01-25T22:07:20.379Z,-1.16
2023-01-25T22:09:49.771Z,-1.16
2023-01-25T22:12:18.043Z,-1.15
2023-01-25T22:14:46.733Z,-1.14
2023-01-25T22:17:16.540Z,-1.14
2023-01-25T22:19:45.754Z,-1.14
2023-01-25T22:22:14.219Z,-1.15
2023-01-25T22:24:43.412Z,-1.15
2023-01-25T22:27:17.833Z,-1.19
2023-01-25T22:29:46.512Z,-1.22
2023-01-25T22:32:14.894Z,-1.22
2023-01-25T22:34:43.372Z,-1.22
2023-01-25T22:37:12.253Z,-1.21
2023-01-25T22:39:40.948Z,-1.21
2023-01-25T22:42:09.206Z,-1.21
2023-01-25T22:44:37.492Z,-1.20
2023-01-25T22:47:06.274Z,-1.21
2023-01-25T22:49:35.375Z,-1.23
2023-01-25T22:52:04.052Z,-1.26
2023-01-25T22:54:36.630Z,-1.26
2023-01-25T22:57:05.108Z,-1.24
2023-01-25T22:59:33.895Z,-1.25
2023-01-25T23:02:02.377Z,-1.27
2023-01-25T23:04:31.720Z,-1.29
2023-01-25T23:07:12.231Z,-1.34
2023-01-25T23:09:40.917Z,-1.35
2023-01-25T23:12:09.497Z,-1.37
2023-01-25T23:14:47.602Z,-1.38
2023-01-25T23:17:34.513Z,-1.38
2023-01-25T23:20:04.974Z,-1.38
2023-01-25T23:22:33.323Z,-1.39
2023-01-25T23:25:01.816Z,-1.38
2023-01-25T23:27:30.476Z,-1.38
2023-01-25T23:29:59.162Z,-1.40
2023-01-25T23:32:27.843Z,-1.43
2023-01-25T23:34:56.838Z,-1.44
2023-01-25T23:37:25.314Z,-1.41
2023-01-25T23:39:54.353Z,-1.38
2023-01-25T23:42:22.785Z,-1.36
2023-01-25T23:44:51.979Z,-1.37
2023-01-25T23:47:20.267Z,-1.40
2023-01-25T23:49:48.741Z,-1.41
2023-01-25T23:52:17.210Z,-1.41
2023-01-25T23:54:45.588Z,-1.42
2023-01-25T23:57:14.068Z,-1.44
2023-01-25T23:59:42.546Z,-1.41
